Time;durP1;ratioP1;P1;durP2;ratioP2;P2;SDS_P1;SDS_P2;PMS_P1;PMS_P2;Temp;Humidity;BMP_temperature;BMP_pressure;BME280_temperature;BME280_humidity;BME280_pressure;Samples;Min_cycle;Max_cycle;Signal;HPM_P1;HPM_P2
2023/03/04 00:00:05;;;;;;;70.22;19.98;;;;;;;;;;4971987;28;20137;-68
2023/03/04 00:02:32;;;;;;;57.53;17.55;;;;;;;;;;4971509;28;20051;-67
2023/03/04 00:04:58;;;;;;;67.00;16.80;;;;;;;;;;4971792;28;20046;-68
2023/03/04 00:07:25;;;;;;;57.90;18.52;;;;;;;;;;4971463;28;20057;-68
2023/03/04 00:09:51;;;;;;;70.15;20.70;;;;;;;;;;4971624;28;20560;-67
2023/03/04 00:12:19;;;;;;;60.00;18.25;;;;;;;;;;4971696;28;20520;-68
2023/03/04 00:14:46;;;;;;;65.25;18.65;;;;;;;;;;4971504;28;20049;-68
2023/03/04 00:17:13;;;;;;;62.15;19.33;;;;;;;;;;4971422;28;20053;-68
2023/03/04 00:19:39;;;;;;;60.70;19.08;;;;;;;;;;4971606;28;20060;-68
2023/03/04 00:22:06;;;;;;;55.03;16.65;;;;;;;;;;4971904;28;20057;-68
2023/03/04 00:24:33;;;;;;;71.80;18.42;;;;;;;;;;4971020;28;20054;-68
2023/03/04 00:27:00;;;;;;;59.83;18.77;;;;;;;;;;4971128;28;20055;-67
2023/03/04 00:29:28;;;;;;;63.08;18.90;;;;;;;;;;4971192;28;20053;-68
2023/03/04 00:31:55;;;;;;;61.22;18.60;;;;;;;;;;4971712;28;20057;-68
2023/03/04 00:34:21;;;;;;;62.63;18.15;;;;;;;;;;4971062;28;20047;-68
2023/03/04 00:36:48;;;;;;;58.58;16.75;;;;;;;;;;4971774;28;20046;-68
2023/03/04 00:39:15;;;;;;;61.05;18.75;;;;;;;;;;4970832;28;20051;-68
2023/03/04 00:41:42;;;;;;;59.85;18.33;;;;;;;;;;4971371;28;20042;-68
2023/03/04 00:44:08;;;;;;;58.28;16.38;;;;;;;;;;4971186;28;20047;-68
2023/03/04 00:46:36;;;;;;;59.60;17.00;;;;;;;;;;4971036;28;20076;-68
2023/03/04 00:49:03;;;;;;;62.20;17.15;;;;;;;;;;4971104;28;20482;-68
2023/03/04 00:51:29;;;;;;;64.18;17.30;;;;;;;;;;4971194;28;20137;-68
2023/03/04 00:53:56;;;;;;;63.67;16.50;;;;;;;;;;4970938;28;20120;-67
2023/03/04 00:56:23;;;;;;;65.00;17.58;;;;;;;;;;4971028;28;20528;-68
2023/03/04 00:58:49;;;;;;;61.10;17.00;;;;;;;;;;4971287;28;20043;-68
2023/03/04 01:01:16;;;;;;;66.78;17.80;;;;;;;;;;4970776;28;20051;-68
2023/03/04 01:03:44;;;;;;;65.60;16.65;;;;;;;;;;4971081;28;20141;-68
2023/03/04 01:06:11;;;;;;;70.45;18.20;;;;;;;;;;4970745;28;20307;-68
2023/03/04 01:08:38;;;;;;;62.22;17.23;;;;;;;;;;4971135;28;20405;-68
2023/03/04 01:11:05;;;;;;;67.18;17.85;;;;;;;;;;4970735;28;20063;-68
2023/03/04 01:13:32;;;;;;;66.40;17.85;;;;;;;;;;4970421;28;20053;-68
2023/03/04 01:15:58;;;;;;;63.42;18.45;;;;;;;;;;4970649;28;20062;-68
2023/03/04 01:18:25;;;;;;;63.75;18.25;;;;;;;;;;4970693;28;20051;-68
2023/03/04 01:20:53;;;;;;;68.55;18.75;;;;;;;;;;4970969;28;20051;-68
2023/03/04 01:23:20;;;;;;;60.05;17.20;;;;;;;;;;4970943;28;20051;-67
2023/03/04 01:25:46;;;;;;;55.83;16.85;;;;;;;;;;4974775;28;20043;-68
2023/03/04 01:28:13;;;;;;;56.70;16.38;;;;;;;;;;4974473;28;20048;-67
2023/03/04 01:30:40;;;;;;;57.65;17.48;;;;;;;;;;4975067;28;20058;-67
2023/03/04 01:33:06;;;;;;;63.05;17.40;;;;;;;;;;4974898;28;20057;-67
2023/03/04 01:35:33;;;;;;;68.43;19.25;;;;;;;;;;4975221;28;20210;-67
2023/03/04 01:38:01;;;;;;;67.32;19.27;;;;;;;;;;4974798;28;20061;-67
2023/03/04 01:40:28;;;;;;;61.15;18.85;;;;;;;;;;4974525;28;20078;-67
2023/03/04 01:42:54;;;;;;;61.95;17.45;;;;;;;;;;4974542;28;20050;-67
2023/03/04 01:45:21;;;;;;;64.07;16.38;;;;;;;;;;4975082;28;20047;-67
2023/03/04 01:47:49;;;;;;;52.53;17.00;;;;;;;;;;4974333;28;20177;-67
2023/03/04 01:50:20;;;;;;;65.32;18.67;;;;;;;;;;4974920;28;20520;-67
2023/03/04 01:52:47;;;;;;;58.58;17.67;;;;;;;;;;4974327;28;20057;-67
2023/03/04 01:55:18;;;;;;;60.97;17.23;;;;;;;;;;4974410;28;20049;-67
2023/03/04 01:57:47;;;;;;;62.22;16.38;;;;;;;;;;4974515;28;20141;-67
2023/03/04 02:00:22;;;;;;;65.85;17.23;;;;;;;;;;4974688;28;20046;-67
2023/03/04 02:02:50;;;;;;;63.25;19.60;;;;;;;;;;4974168;28;20098;-67
2023/03/04 02:05:17;;;;;;;65.15;18.75;;;;;;;;;;4974307;28;20334;-67
2023/03/04 02:07:44;;;;;;;69.55;19.08;;;;;;;;;;4974044;28;20506;-67
2023/03/04 02:10:12;;;;;;;61.67;18.70;;;;;;;;;;4974524;28;20051;-67
2023/03/04 02:12:40;;;;;;;67.20;18.88;;;;;;;;;;4974205;28;20043;-66
2023/03/04 02:15:08;;;;;;;58.38;16.35;;;;;;;;;;4974420;28;20050;-67
2023/03/04 02:17:34;;;;;;;61.95;18.30;;;;;;;;;;4973895;28;20058;-67
2023/03/04 02:20:08;;;;;;;62.78;17.52;;;;;;;;;;4973941;28;20066;-66
2023/03/04 02:22:39;;;;;;;64.15;19.08;;;;;;;;;;4974024;28;20055;-67
2023/03/04 02:25:10;;;;;;;60.03;17.38;;;;;;;;;;4974321;28;20049;-67
2023/03/04 02:27:38;;;;;;;54.20;16.15;;;;;;;;;;4974019;28;20155;-67
2023/03/04 02:30:06;;;;;;;61.88;18.75;;;;;;;;;;4974225;28;20057;-67
2023/03/04 02:32:33;;;;;;;64.50;18.83;;;;;;;;;;4974094;28;20479;-67
2023/03/04 02:35:00;;;;;;;66.70;18.50;;;;;;;;;;4973419;28;20055;-67
2023/03/04 02:37:26;;;;;;;69.03;19.10;;;;;;;;;;4973418;28;20050;-67
2023/03/04 02:39:53;;;;;;;68.75;18.90;;;;;;;;;;4973671;28;20051;-67
2023/03/04 02:42:19;;;;;;;55.80;16.75;;;;;;;;;;4973404;28;20051;-67
2023/03/04 02:44:49;;;;;;;60.05;19.55;;;;;;;;;;4973444;28;20049;-67
2023/03/04 02:47:18;;;;;;;68.15;18.80;;;;;;;;;;4973541;28;20358;-67
2023/03/04 02:49:45;;;;;;;63.42;19.65;;;;;;;;;;4973612;28;20050;-67
2023/03/04 02:52:15;;;;;;;69.53;19.60;;;;;;;;;;4973503;28;20053;-67
2023/03/04 02:54:41;;;;;;;62.75;17.08;;;;;;;;;;4973253;28;20053;-67
2023/03/04 02:57:10;;;;;;;71.72;19.95;;;;;;;;;;4973469;28;20414;-67
2023/03/04 02:59:37;;;;;;;60.72;18.20;;;;;;;;;;4973308;28;20046;-67
2023/03/04 03:02:06;;;;;;;61.47;19.42;;;;;;;;;;4973392;28;20046;-67
2023/03/04 03:04:34;;;;;;;65.38;21.35;;;;;;;;;;4973324;28;20415;-67
2023/03/04 03:07:01;;;;;;;65.55;18.85;;;;;;;;;;4973036;28;20061;-67
2023/03/04 03:09:27;;;;;;;71.55;20.83;;;;;;;;;;4973155;28;20129;-65
2023/03/04 03:11:54;;;;;;;64.60;19.15;;;;;;;;;;4973346;28;20050;-65
2023/03/04 03:14:21;;;;;;;61.80;19.38;;;;;;;;;;4972878;28;20401;-66
2023/03/04 03:16:47;;;;;;;66.63;19.38;;;;;;;;;;4973176;28;20509;-66
2023/03/04 03:19:15;;;;;;;66.53;19.88;;;;;;;;;;4972855;28;20547;-65
2023/03/04 03:21:42;;;;;;;58.10;18.45;;;;;;;;;;4972974;28;20073;-65
2023/03/04 03:24:08;;;;;;;66.80;20.23;;;;;;;;;;4972948;28;20072;-65
2023/03/04 03:26:35;;;;;;;65.65;18.95;;;;;;;;;;4972843;28;20047;-65
2023/03/04 03:29:01;;;;;;;61.72;18.30;;;;;;;;;;4972435;28;20053;-65
2023/03/04 03:31:28;;;;;;;65.10;18.98;;;;;;;;;;4972790;28;20051;-65
2023/03/04 03:33:54;;;;;;;58.97;18.23;;;;;;;;;;4972746;28;20050;-65
2023/03/04 03:36:22;;;;;;;54.92;18.58;;;;;;;;;;4972764;28;20053;-65
2023/03/04 03:38:49;;;;;;;65.70;20.48;;;;;;;;;;4973112;28;20461;-65
2023/03/04 03:41:16;;;;;;;58.08;18.70;;;;;;;;;;4972595;28;20401;-65
2023/03/04 03:43:42;;;;;;;59.60;17.73;;;;;;;;;;4972834;28;20049;-66
2023/03/04 03:46:08;;;;;;;60.10;18.80;;;;;;;;;;4972112;28;20043;-66
2023/03/04 03:48:35;;;;;;;62.95;19.33;;;;;;;;;;4972524;28;20247;-66
2023/03/04 03:51:02;;;;;;;58.60;19.13;;;;;;;;;;4972493;28;20051;-66
2023/03/04 03:53:29;;;;;;;58.88;18.20;;;;;;;;;;4972655;28;20065;-65
2023/03/04 03:55:57;;;;;;;62.85;19.75;;;;;;;;;;4972078;28;20046;-66
2023/03/04 03:58:25;;;;;;;61.75;19.48;;;;;;;;;;4972445;28;20053;-66
2023/03/04 04:00:52;;;;;;;61.30;19.05;;;;;;;;;;4972154;28;20493;-66
2023/03/04 04:03:19;;;;;;;58.25;19.40;;;;;;;;;;4972402;28;20512;-66
2023/03/04 04:05:45;;;;;;;60.00;20.23;;;;;;;;;;4972169;28;20410;-65
2023/03/04 04:08:13;;;;;;;63.78;19.63;;;;;;;;;;4971423;28;20494;-65
2023/03/04 04:10:41;;;;;;;59.78;19.08;;;;;;;;;;4971140;28;20047;-65
2023/03/04 04:13:08;;;;;;;65.75;19.80;;;;;;;;;;4971585;28;20043;-66
2023/03/04 04:15:35;;;;;;;68.47;19.58;;;;;;;;;;4971487;28;20051;-65
2023/03/04 04:18:02;;;;;;;59.22;18.10;;;;;;;;;;4971424;28;20059;-66
2023/03/04 04:20:28;;;;;;;60.10;19.75;;;;;;;;;;4971355;28;20043;-65
2023/03/04 04:22:55;;;;;;;67.80;20.55;;;;;;;;;;4971267;28;20084;-66
2023/03/04 04:25:21;;;;;;;59.22;19.27;;;;;;;;;;4971216;28;20494;-66
2023/03/04 04:27:49;;;;;;;65.22;20.63;;;;;;;;;;4971114;28;20046;-66
2023/03/04 04:30:16;;;;;;;62.30;19.13;;;;;;;;;;4971701;28;20518;-66
2023/03/04 04:32:42;;;;;;;71.68;21.02;;;;;;;;;;4971289;28;20051;-65
2023/03/04 04:35:09;;;;;;;59.90;18.65;;;;;;;;;;4971278;28;20047;-66
2023/03/04 04:37:36;;;;;;;60.22;20.38;;;;;;;;;;4971035;28;20146;-65
2023/03/04 04:40:03;;;;;;;62.70;19.17;;;;;;;;;;4971403;28;20043;-66
2023/03/04 04:42:30;;;;;;;61.88;19.35;;;;;;;;;;4971231;28;20486;-66
2023/03/04 04:44:58;;;;;;;67.30;21.52;;;;;;;;;;4971634;28;20517;-65
2023/03/04 04:47:24;;;;;;;64.80;20.15;;;;;;;;;;4970820;28;20047;-65
2023/03/04 04:49:51;;;;;;;68.90;19.55;;;;;;;;;;4971285;28;20058;-65
2023/03/04 04:52:18;;;;;;;70.25;22.63;;;;;;;;;;4970569;28;20054;-65
2023/03/04 04:54:44;;;;;;;72.35;21.50;;;;;;;;;;4971467;28;20375;-66
2023/03/04 04:57:11;;;;;;;63.00;20.30;;;;;;;;;;4970457;28;20043;-66
2023/03/04 04:59:37;;;;;;;74.05;21.40;;;;;;;;;;4973244;28;20060;-65
2023/03/04 05:02:05;;;;;;;54.00;19.73;;;;;;;;;;4974914;28;20069;-66
2023/03/04 05:04:32;;;;;;;60.30;21.08;;;;;;;;;;4974777;28;20297;-66
2023/03/04 05:06:58;;;;;;;67.53;20.80;;;;;;;;;;4974556;28;20055;-66
2023/03/04 05:09:25;;;;;;;66.43;21.88;;;;;;;;;;4975170;28;20050;-66
2023/03/04 05:11:51;;;;;;;66.70;20.38;;;;;;;;;;4975101;28;20047;-66
2023/03/04 05:14:18;;;;;;;67.38;21.60;;;;;;;;;;4974477;28;20073;-66
2023/03/04 05:16:45;;;;;;;68.88;22.23;;;;;;;;;;4975021;28;20487;-65
2023/03/04 05:19:12;;;;;;;62.88;20.55;;;;;;;;;;4974123;28;20051;-66
2023/03/04 05:21:39;;;;;;;70.00;21.77;;;;;;;;;;4974768;28;20064;-68
2023/03/04 05:24:06;;;;;;;65.53;20.83;;;;;;;;;;4974521;28;20051;-66
2023/03/04 05:26:34;;;;;;;62.35;19.65;;;;;;;;;;4974754;28;20057;-66
2023/03/04 05:29:00;;;;;;;66.97;19.17;;;;;;;;;;4974052;28;20046;-65
2023/03/04 05:31:27;;;;;;;68.20;20.40;;;;;;;;;;4974574;28;20047;-66
2023/03/04 05:33:53;;;;;;;60.67;19.77;;;;;;;;;;4973894;28;20057;-65
2023/03/04 05:36:21;;;;;;;63.85;19.95;;;;;;;;;;4974724;28;20047;-64
2023/03/04 05:38:48;;;;;;;72.15;22.45;;;;;;;;;;4974228;28;20516;-66
2023/03/04 05:41:17;;;;;;;68.10;22.15;;;;;;;;;;4974535;28;20683;-66
2023/03/04 05:43:44;;;;;;;68.68;22.25;;;;;;;;;;4974093;28;20047;-65
2023/03/04 05:46:14;;;;;;;65.30;20.40;;;;;;;;;;4974413;28;20051;-65
2023/03/04 05:48:40;;;;;;;62.25;21.08;;;;;;;;;;4973949;28;20058;-65
2023/03/04 05:51:07;;;;;;;69.45;21.85;;;;;;;;;;4974649;28;20051;-65
2023/03/04 05:53:36;;;;;;;61.17;20.50;;;;;;;;;;4973846;28;20043;-66
2023/03/04 05:56:07;;;;;;;72.07;21.42;;;;;;;;;;4974355;28;20311;-66
2023/03/04 05:58:34;;;;;;;67.28;22.35;;;;;;;;;;4973703;28;20524;-65
2023/03/04 06:01:01;;;;;;;67.70;20.27;;;;;;;;;;4973972;28;20047;-65
2023/03/04 06:03:27;;;;;;;64.85;21.90;;;;;;;;;;4973891;28;20486;-64
2023/03/04 06:05:54;;;;;;;71.20;21.30;;;;;;;;;;4973840;28;20055;-65
2023/03/04 06:08:21;;;;;;;64.18;19.67;;;;;;;;;;4973687;28;20047;-66
2023/03/04 06:10:52;;;;;;;63.63;19.30;;;;;;;;;;4973341;28;20042;-65
2023/03/04 06:13:19;;;;;;;63.22;19.80;;;;;;;;;;4973684;28;20051;-65
2023/03/04 06:15:45;;;;;;;65.82;21.45;;;;;;;;;;4973565;28;20062;-66
2023/03/04 06:18:12;;;;;;;63.55;21.10;;;;;;;;;;4973582;28;20047;-65
2023/03/04 06:20:39;;;;;;;68.70;20.92;;;;;;;;;;4973602;28;20245;-66
2023/03/04 06:23:06;;;;;;;71.82;22.48;;;;;;;;;;4973446;28;20049;-66
2023/03/04 06:25:33;;;;;;;71.68;23.52;;;;;;;;;;4973481;28;20111;-65
2023/03/04 06:28:01;;;;;;;74.85;22.92;;;;;;;;;;4973133;28;20050;-65
2023/03/04 06:30:28;;;;;;;72.45;21.13;;;;;;;;;;4973420;28;20047;-66
2023/03/04 06:32:54;;;;;;;74.93;25.05;;;;;;;;;;4973678;28;20133;-66
2023/03/04 06:35:21;;;;;;;67.63;22.30;;;;;;;;;;4973485;28;20046;-66
2023/03/04 06:37:48;;;;;;;72.22;23.83;;;;;;;;;;4973336;28;20050;-66
2023/03/04 06:40:14;;;;;;;72.60;22.27;;;;;;;;;;4973039;28;20498;-66
2023/03/04 06:42:41;;;;;;;67.55;21.55;;;;;;;;;;4972921;28;20057;-65
2023/03/04 06:45:11;;;;;;;63.95;20.77;;;;;;;;;;4973151;28;20053;-67
2023/03/04 06:47:37;;;;;;;72.55;23.80;;;;;;;;;;4972900;28;20054;-67
2023/03/04 06:50:05;;;;;;;60.47;21.23;;;;;;;;;;4973293;28;20406;-67
2023/03/04 06:52:32;;;;;;;63.70;20.67;;;;;;;;;;4973044;28;20047;-67
2023/03/04 06:54:58;;;;;;;60.33;22.52;;;;;;;;;;4973305;28;20043;-68
2023/03/04 06:57:25;;;;;;;64.47;21.38;;;;;;;;;;4972920;28;20075;-67
2023/03/04 06:59:51;;;;;;;62.67;22.90;;;;;;;;;;4973434;28;20073;-67
2023/03/04 07:02:19;;;;;;;70.30;21.15;;;;;;;;;;4972912;28;20062;-67
2023/03/04 07:04:46;;;;;;;64.00;20.23;;;;;;;;;;4973034;28;20054;-67
2023/03/04 07:07:12;;;;;;;65.82;21.92;;;;;;;;;;4972345;28;20047;-67
2023/03/04 07:09:39;;;;;;;59.50;19.40;;;;;;;;;;4972628;28;20203;-67
2023/03/04 07:12:06;;;;;;;64.13;20.10;;;;;;;;;;4972524;28;20051;-67
2023/03/04 07:14:32;;;;;;;64.95;21.65;;;;;;;;;;4972796;28;20057;-67
2023/03/04 07:16:59;;;;;;;67.85;21.60;;;;;;;;;;4972476;28;20047;-68
2023/03/04 07:19:27;;;;;;;69.68;21.10;;;;;;;;;;4972508;28;20050;-67
2023/03/04 07:21:53;;;;;;;69.80;21.60;;;;;;;;;;4971634;28;20057;-67
2023/03/04 07:24:20;;;;;;;62.65;21.13;;;;;;;;;;4972129;28;20498;-67
2023/03/04 07:26:47;;;;;;;65.47;22.10;;;;;;;;;;4972434;28;20042;-68
2023/03/04 07:29:13;;;;;;;66.57;21.63;;;;;;;;;;4972541;28;20072;-67
2023/03/04 07:31:40;;;;;;;61.85;21.38;;;;;;;;;;4972522;28;20554;-67
2023/03/04 07:34:12;;;;;;;70.25;24.77;;;;;;;;;;4972310;28;20506;-67
2023/03/04 07:36:40;;;;;;;69.35;23.20;;;;;;;;;;4972144;28;20051;-67
2023/03/04 07:39:10;;;;;;;65.07;22.83;;;;;;;;;;4971932;28;20050;-68
2023/03/04 07:41:36;;;;;;;70.22;23.40;;;;;;;;;;4972437;28;20046;-67
2023/03/04 07:44:05;;;;;;;64.30;20.77;;;;;;;;;;4972095;28;20482;-68
2023/03/04 07:46:31;;;;;;;71.10;22.67;;;;;;;;;;4972397;28;20054;-67
2023/03/04 07:48:58;;;;;;;64.43;21.70;;;;;;;;;;4971899;28;20047;-68
2023/03/04 07:51:26;;;;;;;69.35;22.75;;;;;;;;;;4972053;28;20046;-67
2023/03/04 07:53:57;;;;;;;77.70;23.90;;;;;;;;;;4971889;28;20043;-67
2023/03/04 07:56:26;;;;;;;78.05;26.35;;;;;;;;;;4972355;28;20054;-66
2023/03/04 07:58:53;;;;;;;62.08;21.98;;;;;;;;;;4971687;28;20042;-66
2023/03/04 08:01:22;;;;;;;64.15;22.05;;;;;;;;;;4972169;28;20047;-67
2023/03/04 08:03:49;;;;;;;66.00;21.35;;;;;;;;;;4971521;28;20054;-67
2023/03/04 08:06:18;;;;;;;62.63;22.80;;;;;;;;;;4971718;28;20054;-67
2023/03/04 08:08:45;;;;;;;67.38;22.67;;;;;;;;;;4971223;28;20047;-67
2023/03/04 08:11:15;;;;;;;61.28;21.10;;;;;;;;;;4971964;28;20042;-68
2023/03/04 08:13:41;;;;;;;66.97;21.92;;;;;;;;;;4971330;28;20051;-67
2023/03/04 08:16:08;;;;;;;69.60;21.83;;;;;;;;;;4972179;28;20368;-67
2023/03/04 08:18:34;;;;;;;63.38;21.92;;;;;;;;;;4970812;28;20053;-67
2023/03/04 08:21:01;;;;;;;63.28;20.67;;;;;;;;;;4972032;28;20077;-68
2023/03/04 08:23:28;;;;;;;63.35;20.63;;;;;;;;;;4971034;28;20473;-67
2023/03/04 08:25:54;;;;;;;63.17;22.20;;;;;;;;;;4971709;28;20405;-68
2023/03/04 08:28:22;;;;;;;62.13;22.23;;;;;;;;;;4970674;28;20057;-68
2023/03/04 08:30:53;;;;;;;63.88;21.67;;;;;;;;;;4971559;28;20043;-67
2023/03/04 08:33:19;;;;;;;61.53;21.63;;;;;;;;;;4971231;28;20058;-67
2023/03/04 08:35:46;;;;;;;63.20;21.40;;;;;;;;;;4971462;28;20049;-67
2023/03/04 08:38:12;;;;;;;59.10;20.85;;;;;;;;;;4971176;28;20047;-67
2023/03/04 08:40:39;;;;;;;63.55;21.05;;;;;;;;;;4971123;28;20057;-68
2023/03/04 08:43:06;;;;;;;62.63;21.48;;;;;;;;;;4971181;28;20418;-67
2023/03/04 08:45:33;;;;;;;55.67;19.33;;;;;;;;;;4970862;28;20050;-67
2023/03/04 08:48:00;;;;;;;63.03;20.77;;;;;;;;;;4971411;28;20133;-67
2023/03/04 08:50:27;;;;;;;60.80;20.48;;;;;;;;;;4971136;28;20058;-67
2023/03/04 08:52:54;;;;;;;62.08;21.10;;;;;;;;;;4971329;28;20506;-67
2023/03/04 08:55:21;;;;;;;65.45;21.88;;;;;;;;;;4971084;28;20046;-67
2023/03/04 08:57:47;;;;;;;59.25;20.17;;;;;;;;;;4971338;28;20114;-67
2023/03/04 09:00:15;;;;;;;65.53;21.23;;;;;;;;;;4970710;28;20047;-67
2023/03/04 09:02:43;;;;;;;59.78;21.23;;;;;;;;;;4971192;28;20051;-68
2023/03/04 09:05:09;;;;;;;60.55;20.20;;;;;;;;;;4971184;28;20471;-67
2023/03/04 09:07:36;;;;;;;64.18;21.23;;;;;;;;;;4971112;28;20043;-67
2023/03/04 09:10:03;;;;;;;59.13;21.95;;;;;;;;;;4970976;28;20105;-66
2023/03/04 09:12:30;;;;;;;56.22;21.10;;;;;;;;;;4971309;28;20047;-64
2023/03/04 09:14:56;;;;;;;62.55;23.77;;;;;;;;;;4971395;28;20509;-64
2023/03/04 09:17:23;;;;;;;64.95;22.10;;;;;;;;;;4971390;28;20143;-65
2023/03/04 09:19:51;;;;;;;57.10;21.15;;;;;;;;;;4971357;28;20043;-65
2023/03/04 09:22:17;;;;;;;60.38;21.80;;;;;;;;;;4971071;28;20043;-64
2023/03/04 09:24:44;;;;;;;62.17;23.02;;;;;;;;;;4971211;28;20047;-64
2023/03/04 09:27:10;;;;;;;53.00;19.95;;;;;;;;;;4971401;28;20051;-65
2023/03/04 09:29:37;;;;;;;53.85;20.00;;;;;;;;;;4971517;28;20053;-65
2023/03/04 09:32:03;;;;;;;58.85;21.65;;;;;;;;;;4971261;28;20046;-64
2023/03/04 09:34:30;;;;;;;57.65;21.27;;;;;;;;;;4971566;28;20053;-65
2023/03/04 09:36:58;;;;;;;56.42;21.05;;;;;;;;;;4970991;28;20070;-64
2023/03/04 09:39:25;;;;;;;57.78;21.35;;;;;;;;;;4971058;28;20051;-64
2023/03/04 09:41:55;;;;;;;57.35;20.88;;;;;;;;;;4971085;28;20405;-65
2023/03/04 09:44:24;;;;;;;54.17;21.65;;;;;;;;;;4971295;28;20046;-67
2023/03/04 09:46:52;;;;;;;58.08;21.55;;;;;;;;;;4974409;28;20050;-66
2023/03/04 09:49:20;;;;;;;56.05;21.92;;;;;;;;;;4975058;28;20043;-66
2023/03/04 09:51:56;;;;;;;58.60;22.48;;;;;;;;;;4974487;28;20047;-66
2023/03/04 09:54:37;;;;;;;57.08;20.95;;;;;;;;;;4974615;28;20054;-66
2023/03/04 09:57:21;;;;;;;63.28;21.85;;;;;;;;;;4974530;28;20057;-66
2023/03/04 09:59:56;;;;;;;51.80;20.98;;;;;;;;;;4975081;28;20051;-67
2023/03/04 10:02:30;;;;;;;57.72;20.33;;;;;;;;;;4974354;28;20454;-66
2023/03/04 10:05:00;;;;;;;59.95;21.02;;;;;;;;;;4974425;28;20081;-66
2023/03/04 10:07:31;;;;;;;52.58;19.75;;;;;;;;;;4973524;28;20131;-66
2023/03/04 10:10:02;;;;;;;57.83;21.05;;;;;;;;;;4974234;28;20047;-65
2023/03/04 10:12:32;;;;;;;52.35;20.50;;;;;;;;;;4974028;28;20055;-66
2023/03/04 10:15:03;;;;;;;53.22;20.77;;;;;;;;;;4974100;28;20046;-66
2023/03/04 10:17:36;;;;;;;53.22;20.70;;;;;;;;;;4973282;28;20042;-66
2023/03/04 10:20:06;;;;;;;51.00;19.45;;;;;;;;;;4973949;28;20055;-66
2023/03/04 10:22:37;;;;;;;58.22;21.85;;;;;;;;;;4973448;28;20102;-63
2023/03/04 10:25:18;;;;;;;56.25;22.20;;;;;;;;;;4973506;28;20050;-63
2023/03/04 10:27:51;;;;;;;59.42;23.20;;;;;;;;;;4972928;28;20581;-64
2023/03/04 10:30:26;;;;;;;60.53;22.75;;;;;;;;;;4973490;28;20050;-64
2023/03/04 10:32:54;;;;;;;57.05;21.35;;;;;;;;;;4973193;28;20059;-64
2023/03/04 10:35:26;;;;;;;57.90;21.67;;;;;;;;;;4973541;28;20043;-63
2023/03/04 10:37:53;;;;;;;53.47;20.38;;;;;;;;;;4973006;28;20047;-62
2023/03/04 10:40:24;;;;;;;58.35;22.45;;;;;;;;;;4973285;28;20053;-63
2023/03/04 10:42:52;;;;;;;54.63;20.20;;;;;;;;;;4973152;28;20414;-66
2023/03/04 10:45:24;;;;;;;54.85;20.48;;;;;;;;;;4973477;28;20625;-66
2023/03/04 10:47:54;;;;;;;57.63;21.60;;;;;;;;;;4972636;28;20055;-66
2023/03/04 10:50:25;;;;;;;54.00;20.90;;;;;;;;;;4973203;28;20049;-67
2023/03/04 10:52:54;;;;;;;58.67;19.75;;;;;;;;;;4972769;28;20417;-66
2023/03/04 10:55:27;;;;;;;51.72;19.85;;;;;;;;;;4973166;28;20046;-66
2023/03/04 10:57:55;;;;;;;50.58;19.88;;;;;;;;;;4971816;28;20061;-66
2023/03/04 11:00:28;;;;;;;48.28;19.52;;;;;;;;;;4973285;28;20414;-66
2023/03/04 11:03:22;;;;;;;55.28;19.98;;;;;;;;;;4972700;28;20050;-66
2023/03/04 11:05:48;;;;;;;;;;;;;;;;;;4973374;28;20046;-66
2023/03/04 11:08:18;;;;;;;45.75;17.98;;;;;;;;;;4972507;28;19952;-67
2023/03/04 11:10:46;;;;;;;47.58;18.88;;;;;;;;;;4973315;28;20553;-66
2023/03/04 11:13:17;;;;;;;52.15;18.65;;;;;;;;;;4973436;28;20447;-66
2023/03/04 11:15:52;;;;;;;44.90;18.02;;;;;;;;;;4973203;28;20046;-66
2023/03/04 11:18:22;;;;;;;47.17;18.20;;;;;;;;;;4973123;28;20421;-66
2023/03/04 11:20:50;;;;;;;44.47;18.05;;;;;;;;;;4973129;28;20270;-66
2023/03/04 11:23:26;;;;;;;44.22;16.77;;;;;;;;;;4972743;28;20498;-66
2023/03/04 11:26:01;;;;;;;46.08;18.20;;;;;;;;;;4972612;28;20512;-66
2023/03/04 11:28:39;;;;;;;39.47;17.00;;;;;;;;;;4972743;28;20047;-66
2023/03/04 11:31:12;;;;;;;43.00;15.30;;;;;;;;;;4972923;28;20516;-67
2023/03/04 11:33:41;;;;;;;;;;;;;;;;;;4973071;28;20320;-66
2023/03/04 11:36:23;;;;;;;32.42;14.38;;;;;;;;;;4972685;28;19926;-67
2023/03/04 11:38:51;;;;;;;34.42;12.70;;;;;;;;;;4972254;28;20047;-66
2023/03/04 11:41:25;;;;;;;31.02;12.63;;;;;;;;;;4972185;28;20043;-67
2023/03/04 11:43:51;;;;;;;23.73;9.85;;;;;;;;;;4972189;28;20078;-67
2023/03/04 11:46:43;;;;;;;21.40;8.98;;;;;;;;;;4972072;28;20078;-66
2023/03/04 11:49:24;;;;;;;22.35;9.00;;;;;;;;;;4972337;28;20062;-65
2023/03/04 11:51:58;;;;;;;23.88;8.95;;;;;;;;;;4972147;28;20042;-65
2023/03/04 11:54:32;;;;;;;20.83;8.57;;;;;;;;;;4972138;28;20054;-66
2023/03/04 11:57:07;;;;;;;19.48;7.68;;;;;;;;;;4971779;28;20085;-66
2023/03/04 11:59:59;;;;;;;17.27;6.95;;;;;;;;;;4972333;28;20141;-66
2023/03/04 12:02:32;;;;;;;17.33;6.65;;;;;;;;;;4971901;28;20057;-66
2023/03/04 12:05:26;;;;;;;12.73;5.50;;;;;;;;;;4971420;28;20057;-66
2023/03/04 12:08:21;;;;;;;15.57;5.65;;;;;;;;;;4971148;28;20050;-66
2023/03/04 12:10:58;;;;;;;13.65;5.97;;;;;;;;;;4972026;28;20053;-66
2023/03/04 12:13:42;;;;;;;16.20;5.60;;;;;;;;;;4971627;28;20421;-66
2023/03/04 12:16:24;;;;;;;12.20;5.40;;;;;;;;;;4971226;28;20055;-66
2023/03/04 12:19:05;;;;;;;13.90;5.38;;;;;;;;;;4971694;28;20073;-66
2023/03/04 12:21:48;;;;;;;12.35;5.20;;;;;;;;;;4972045;28;20050;-66
2023/03/04 12:24:47;;;;;;;12.98;4.80;;;;;;;;;;4971315;28;20050;-66
2023/03/04 12:27:24;;;;;;;10.82;4.93;;;;;;;;;;4952781;28;20050;-65
2023/03/04 12:29:58;;;;;;;12.77;4.82;;;;;;;;;;4972090;28;20528;-65
2023/03/04 12:32:35;;;;;;;13.32;5.22;;;;;;;;;;4971161;28;20130;-66
2023/03/04 12:35:17;;;;;;;11.88;4.50;;;;;;;;;;4971564;28;20143;-66
2023/03/04 12:37:58;;;;;;;7.50;3.50;;;;;;;;;;4971144;28;20499;-66
2023/03/04 12:40:32;;;;;;;10.40;3.88;;;;;;;;;;4971388;28;20054;-66
2023/03/04 12:43:15;;;;;;;10.20;4.57;;;;;;;;;;4970739;28;20051;-66
2023/03/04 12:45:49;;;;;;;8.18;3.50;;;;;;;;;;4971575;28;20072;-66
2023/03/04 12:48:27;;;;;;;8.88;3.58;;;;;;;;;;4970765;28;20073;-66
2023/03/04 12:51:03;;;;;;;7.05;3.60;;;;;;;;;;4971334;28;20051;-66
2023/03/04 12:53:33;;;;;;;5.35;2.47;;;;;;;;;;4970615;28;20055;-66
2023/03/04 12:56:02;;;;;;;3.47;2.13;;;;;;;;;;4971308;28;20057;-66
2023/03/04 12:58:31;;;;;;;3.25;1.70;;;;;;;;;;4970645;28;20050;-66
2023/03/04 13:01:07;;;;;;;2.88;1.60;;;;;;;;;;4971120;28;20050;-66
2023/03/04 13:03:42;;;;;;;3.25;1.48;;;;;;;;;;4970633;28;20051;-65
2023/03/04 13:06:23;;;;;;;2.88;1.63;;;;;;;;;;4970869;28;20073;-66
2023/03/04 13:08:57;;;;;;;3.28;2.05;;;;;;;;;;4970829;28;20490;-65
2023/03/04 13:11:45;;;;;;;5.10;1.55;;;;;;;;;;4971288;28;20051;-66
2023/03/04 13:14:25;;;;;;;5.07;1.95;;;;;;;;;;4970609;28;20050;-66
2023/03/04 13:16:55;;;;;;;1.83;1.50;;;;;;;;;;4971045;28;20566;-66
2023/03/04 13:19:48;;;;;;;3.70;1.48;;;;;;;;;;4971059;28;20051;-66
2023/03/04 13:22:44;;;;;;;4.75;1.50;;;;;;;;;;4974797;28;20051;-66
2023/03/04 13:25:37;;;;;;;3.40;1.52;;;;;;;;;;4974856;28;20129;-66
2023/03/04 13:28:25;;;;;;;2.80;1.73;;;;;;;;;;4974465;28;20047;-66
2023/03/04 13:31:21;;;;;;;4.35;1.50;;;;;;;;;;4975427;28;20049;-66
2023/03/04 13:34:04;;;;;;;5.70;1.80;;;;;;;;;;4974461;28;20130;-66
2023/03/04 13:36:58;;;;;;;4.35;2.40;;;;;;;;;;4974731;28;20086;-66
2023/03/04 13:39:31;;;;;;;7.30;3.08;;;;;;;;;;4974040;28;20069;-66
2023/03/04 13:41:59;;;;;;;4.35;2.28;;;;;;;;;;4974811;28;20065;-66
2023/03/04 13:44:59;;;;;;;4.93;2.80;;;;;;;;;;4974190;28;20418;-67
2023/03/04 13:47:45;;;;;;;4.22;2.58;;;;;;;;;;4974281;28;20061;-67
2023/03/04 13:50:28;;;;;;;4.85;3.20;;;;;;;;;;4973782;28;20410;-66
2023/03/04 13:52:55;;;;;;;;;;;;;;;;;;4974769;28;20046;-67
2023/03/04 13:55:41;;;;;;;3.47;1.77;;;;;;;;;;4974075;28;20279;-66
2023/03/04 13:58:21;;;;;;;2.85;1.80;;;;;;;;;;4973732;28;20062;-67
2023/03/04 14:00:50;;;;;;;3.20;1.55;;;;;;;;;;4976284;28;20051;-66
2023/03/04 14:03:22;;;;;;;8.93;2.75;;;;;;;;;;4974113;28;20054;-66
2023/03/04 14:08:42;;;;;;;5.50;2.67;;;;;;;;;;5128173;27;20379;-66
2023/03/04 14:11:13;;;;;;;5.80;3.00;;;;;;;;;;5128039;27;20396;-65
2023/03/04 14:13:40;;;;;;;9.00;3.88;;;;;;;;;;5128516;28;20041;-65
2023/03/04 14:16:06;;;;;;;5.88;3.38;;;;;;;;;;5127897;27;20383;-65
2023/03/04 14:18:33;;;;;;;5.13;3.17;;;;;;;;;;5127850;28;20514;-65
2023/03/04 14:21:01;;;;;;;10.07;3.67;;;;;;;;;;5127671;27;20046;-65
2023/03/04 14:23:30;;;;;;;6.82;3.60;;;;;;;;;;5127970;28;20495;-66
2023/03/04 14:26:13;;;;;;;6.13;4.10;;;;;;;;;;5128157;28;20043;-66
2023/03/04 14:28:44;;;;;;;8.57;5.05;;;;;;;;;;5127566;28;20054;-66
2023/03/04 14:31:17;;;;;;;9.02;5.03;;;;;;;;;;5127676;28;20047;-65
2023/03/04 14:33:45;;;;;;;;;;;;;;;;;;5128483;27;20136;-65
2023/03/04 14:36:18;;;;;;;8.13;3.95;;;;;;;;;;5128019;28;19966;-66
2023/03/04 14:38:51;;;;;;;9.27;4.38;;;;;;;;;;5127952;28;20051;-66
2023/03/04 14:41:23;;;;;;;9.52;5.30;;;;;;;;;;5127692;27;20494;-66